createdAt,value
2022-10-23T00:01:44.741Z,15.02
2022-10-23T00:04:19.863Z,15.02
2022-10-23T00:06:53.252Z,15.04
2022-10-23T00:09:27.556Z,15.06
2022-10-23T00:12:00.927Z,15.06
2022-10-23T00:14:34.494Z,15.08
2022-10-23T00:17:07.621Z,15.09
2022-10-23T00:19:40.903Z,15.10
2022-10-23T00:22:14.014Z,15.11
2022-10-23T00:24:47.319Z,15.10
2022-10-23T00:27:20.747Z,15.10
2022-10-23T00:29:54.647Z,15.09
2022-10-23T00:32:28.526Z,15.08
2022-10-23T00:35:02.579Z,15.08
2022-10-23T00:37:36.825Z,15.08
2022-10-23T00:40:12.700Z,15.07
2022-10-23T00:42:45.903Z,15.08
2022-10-23T00:45:24.635Z,15.09
2022-10-23T00:47:59.226Z,15.09
2022-10-23T00:50:34.669Z,15.10
2022-10-23T00:53:09.375Z,15.10
2022-10-23T00:55:47.200Z,15.09
2022-10-23T00:58:21.960Z,15.09
2022-10-23T01:00:57.336Z,15.08
2022-10-23T01:03:31.572Z,15.08
2022-10-23T01:06:13.817Z,15.10
2022-10-23T01:08:52.300Z,15.11
2022-10-23T01:11:31.075Z,15.10
2022-10-23T01:14:09.613Z,15.08
2022-10-23T01:16:47.599Z,15.06
2022-10-23T01:19:39.953Z,15.04
2022-10-23T01:25:07.943Z,15.02
2022-10-23T01:27:46.901Z,14.99
2022-10-23T01:30:20.893Z,14.97
2022-10-23T01:32:59.828Z,14.98
2022-10-23T01:35:39.807Z,14.98
2022-10-23T01:38:18.362Z,14.99
2022-10-23T01:40:57.969Z,15.00
2022-10-23T01:43:34.991Z,15.01
2022-10-23T01:46:12.230Z,15.03
2022-10-23T01:48:51.782Z,15.05
2022-10-23T01:51:28.959Z,15.08
2022-10-23T01:54:12.030Z,15.10
2022-10-23T01:56:51.098Z,15.10
2022-10-23T01:59:33.069Z,15.11
2022-10-23T02:02:08.514Z,15.11
2022-10-23T02:04:48.016Z,15.13
2022-10-23T02:07:21.499Z,15.17
2022-10-23T02:09:54.994Z,15.20
2022-10-23T02:12:37.510Z,15.21
2022-10-23T02:15:15.795Z,15.21
2022-10-23T02:17:57.303Z,15.22
2022-10-23T02:20:37.411Z,15.23
2022-10-23T02:23:18.739Z,15.24
2022-10-23T02:25:58.357Z,15.24
2022-10-23T02:28:40.586Z,15.22
2022-10-23T02:31:19.780Z,15.19
2022-10-23T02:33:54.711Z,15.18
2022-10-23T02:36:28.044Z,15.18
2022-10-23T02:39:01.702Z,15.18
2022-10-23T02:41:43.872Z,15.19
2022-10-23T02:44:38.201Z,15.17
2022-10-23T02:47:23.310Z,15.14
2022-10-23T02:50:05.826Z,15.13
2022-10-23T02:52:48.181Z,15.14
2022-10-23T02:55:30.814Z,15.17
2022-10-23T02:58:10.812Z,15.17
2022-10-23T03:00:53.360Z,15.16
2022-10-23T03:03:33.304Z,15.16
2022-10-23T03:06:07.883Z,15.16
2022-10-23T03:08:51.826Z,15.19
2022-10-23T03:11:25.378Z,15.18
2022-10-23T03:13:58.540Z,15.17
2022-10-23T03:16:32.011Z,15.15
2022-10-23T03:19:05.872Z,15.17
2022-10-23T03:21:39.690Z,15.15
2022-10-23T03:24:14.349Z,15.15
2022-10-23T03:26:49.537Z,15.16
2022-10-23T03:29:23.376Z,15.15
2022-10-23T03:31:57.295Z,15.15
2022-10-23T03:34:30.483Z,15.12
2022-10-23T03:37:03.617Z,15.12
2022-10-23T03:39:38.025Z,15.15
2022-10-23T03:42:11.394Z,15.14
2022-10-23T03:44:44.419Z,15.13
2022-10-23T03:47:18.170Z,15.15
2022-10-23T03:49:51.691Z,15.16
2022-10-23T03:55:03.773Z,15.14
2022-10-23T03:57:37.626Z,15.14
2022-10-23T04:00:13.137Z,15.15
2022-10-23T04:02:54.100Z,15.16
2022-10-23T04:05:27.519Z,15.14
2022-10-23T04:08:02.092Z,15.08
2022-10-23T04:10:35.389Z,15.04
2022-10-23T04:13:08.573Z,15.01
2022-10-23T04:15:42.867Z,15.00
2022-10-23T04:18:16.236Z,14.98
2022-10-23T04:20:51.136Z,14.98
2022-10-23T04:23:24.589Z,14.96
2022-10-23T04:26:01.067Z,14.95
2022-10-23T04:28:34.885Z,14.96
2022-10-23T04:31:08.565Z,14.97
2022-10-23T04:33:41.649Z,14.95
2022-10-23T04:36:15.278Z,14.92
2022-10-23T04:38:49.503Z,14.89
2022-10-23T04:41:23.297Z,14.86
2022-10-23T04:43:56.284Z,14.84
2022-10-23T04:46:29.748Z,14.84
2022-10-23T04:49:03.272Z,14.84
2022-10-23T04:51:56.364Z,14.83
2022-10-23T04:54:49.624Z,14.81
2022-10-23T04:57:49.701Z,14.79
2022-10-23T05:00:27.337Z,14.77
2022-10-23T05:03:02.734Z,14.76
2022-10-23T05:05:42.378Z,14.74
2022-10-23T05:08:36.243Z,14.74
2022-10-23T05:11:45.351Z,14.74
2022-10-23T05:14:22.701Z,14.76
2022-10-23T05:17:01.219Z,14.79
2022-10-23T05:19:41.859Z,14.80
2022-10-23T05:22:16.599Z,14.80
2022-10-23T05:24:59.223Z,14.80
2022-10-23T05:27:33.366Z,14.78
2022-10-23T05:30:09.999Z,14.76
2022-10-23T05:32:45.003Z,14.77
2022-10-23T05:35:23.352Z,14.77
2022-10-23T05:37:59.626Z,14.76
2022-10-23T05:40:33.377Z,14.74
2022-10-23T05:43:11.567Z,14.74
2022-10-23T05:46:09.369Z,14.75
2022-10-23T05:49:06.192Z,14.75
2022-10-23T05:52:02.586Z,14.69
2022-10-23T05:54:56.282Z,14.63
2022-10-23T05:57:47.861Z,14.61
2022-10-23T06:00:25.707Z,14.62
2022-10-23T06:03:05.770Z,14.63
2022-10-23T06:05:42.993Z,14.64
2022-10-23T06:08:28.638Z,14.67
2022-10-23T06:11:06.623Z,14.65
2022-10-23T06:13:40.355Z,14.64
2022-10-23T06:16:15.850Z,14.71
2022-10-23T06:18:50.014Z,14.80
2022-10-23T06:21:24.339Z,14.85
2022-10-23T06:24:00.015Z,14.87
2022-10-23T06:26:38.041Z,14.88
2022-10-23T06:29:14.327Z,14.88
2022-10-23T06:31:49.203Z,14.90
2022-10-23T06:34:23.305Z,14.87
2022-10-23T06:36:56.652Z,14.87
2022-10-23T06:39:53.445Z,14.89
2022-10-23T06:42:47.782Z,14.97
2022-10-23T06:45:39.478Z,15.06
2022-10-23T06:48:19.132Z,15.18
2022-10-23T06:51:14.991Z,15.37
2022-10-23T06:53:49.607Z,15.53
2022-10-23T06:56:43.050Z,15.64
2022-10-23T06:59:17.204Z,15.69
2022-10-23T07:01:50.706Z,15.71
2022-10-23T07:04:24.665Z,15.70
2022-10-23T07:07:00.008Z,15.68
2022-10-23T07:09:40.414Z,15.67
2022-10-23T07:12:23.604Z,15.65
2022-10-23T07:15:00.485Z,15.64
2022-10-23T07:17:34.254Z,15.65
2022-10-23T07:20:08.141Z,15.66
2022-10-23T07:22:42.492Z,15.69
2022-10-23T07:25:20.412Z,15.75
2022-10-23T07:27:55.682Z,15.79
2022-10-23T07:30:30.184Z,15.81
2022-10-23T07:33:04.164Z,15.85
2022-10-23T07:35:58.629Z,15.85
2022-10-23T07:38:34.518Z,15.85
2022-10-23T07:41:11.605Z,15.92
2022-10-23T07:43:45.757Z,16.09
2022-10-23T07:46:19.595Z,16.29
2022-10-23T07:48:54.246Z,16.54
2022-10-23T07:51:28.104Z,17.19
2022-10-23T07:54:05.558Z,18.03
2022-10-23T07:57:05.527Z,18.47
2022-10-23T07:59:52.964Z,18.75
2022-10-23T08:02:26.909Z,18.85
2022-10-23T08:05:00.802Z,18.76
2022-10-23T08:07:41.060Z,18.54
2022-10-23T08:10:15.282Z,18.36
2022-10-23T08:12:49.514Z,18.21
2022-10-23T08:15:23.193Z,18.09
2022-10-23T08:18:00.502Z,18.04
2022-10-23T08:21:05.597Z,17.97
2022-10-23T08:23:37.227Z,17.81
2022-10-23T08:26:10.974Z,17.65
2022-10-23T08:28:44.523Z,17.53
2022-10-23T08:31:20.322Z,17.48
2022-10-23T08:34:08.823Z,17.45
2022-10-23T08:36:42.492Z,17.45
2022-10-23T08:39:15.846Z,17.50
2022-10-23T08:42:01.607Z,17.51
2022-10-23T08:44:38.333Z,17.55
2022-10-23T08:47:17.189Z,17.69
2022-10-23T08:53:17.477Z,17.78
2022-10-23T08:55:57.327Z,17.78
2022-10-23T08:58:37.066Z,17.78
2022-10-23T09:01:39.117Z,17.75
2022-10-23T09:04:14.429Z,17.72
2022-10-23T09:06:54.497Z,17.76
2022-10-23T09:09:50.103Z,17.82
2022-10-23T09:12:25.226Z,17.77
2022-10-23T09:15:15.228Z,17.71
2022-10-23T09:17:50.435Z,17.69
2022-10-23T09:20:26.969Z,17.66
2022-10-23T09:23:05.174Z,17.68
2022-10-23T09:25:42.578Z,17.75
2022-10-23T09:28:21.730Z,17.84
2022-10-23T09:30:56.392Z,17.89
2022-10-23T09:33:30.591Z,17.87
2022-10-23T09:36:06.062Z,17.80
2022-10-23T09:38:41.229Z,17.71
2022-10-23T09:41:19.962Z,17.62
2022-10-23T09:44:01.471Z,17.57
2022-10-23T09:46:46.204Z,17.57
2022-10-23T09:49:24.899Z,17.61
2022-10-23T09:52:00.804Z,17.66
2022-10-23T09:54:38.494Z,17.65
2022-10-23T09:57:24.470Z,17.66
2022-10-23T10:00:00.834Z,17.71
2022-10-23T10:02:37.234Z,17.78
2022-10-23T10:05:26.736Z,17.85
2022-10-23T10:08:05.797Z,17.91
2022-10-23T10:10:47.486Z,17.97
2022-10-23T10:13:39.862Z,18.04
2022-10-23T10:16:24.703Z,18.08
2022-10-23T10:19:05.614Z,18.17
2022-10-23T10:21:45.528Z,18.18
2022-10-23T10:24:24.213Z,18.12
2022-10-23T10:26:59.328Z,18.02
2022-10-23T10:29:50.201Z,17.91
2022-10-23T10:32:37.270Z,17.83
2022-10-23T10:35:25.156Z,17.77
2022-10-23T10:38:15.232Z,17.73
2022-10-23T10:41:02.831Z,17.72
2022-10-23T10:43:45.585Z,17.69
2022-10-23T10:46:28.891Z,17.74
2022-10-23T10:49:06.407Z,17.82
2022-10-23T10:51:49.385Z,17.83
2022-10-23T10:54:41.391Z,17.82
2022-10-23T10:57:26.615Z,17.74
2022-10-23T11:00:05.145Z,17.63
2022-10-23T11:02:45.490Z,17.52
2022-10-23T11:05:27.583Z,17.42
2022-10-23T11:08:05.650Z,17.35
2022-10-23T11:10:44.475Z,17.32
2022-10-23T11:13:29.517Z,17.28
2022-10-23T11:16:10.719Z,17.27
2022-10-23T11:18:47.366Z,17.25
2022-10-23T11:21:32.409Z,17.22
2022-10-23T11:24:58.216Z,17.26
2022-10-23T11:27:48.694Z,17.36
2022-10-23T11:30:34.231Z,17.47
2022-10-23T11:33:39.243Z,17.63
2022-10-23T11:36:20.274Z,17.80
2022-10-23T11:39:00.200Z,17.95
2022-10-23T11:41:35.457Z,18.09
2022-10-23T11:44:41.854Z,18.14
2022-10-23T11:47:39.257Z,18.13
2022-10-23T11:50:33.525Z,18.06
2022-10-23T11:53:25.156Z,18.00
2022-10-23T11:56:25.482Z,18.00
2022-10-23T11:59:01.179Z,18.02
2022-10-23T12:01:39.173Z,18.05
2022-10-23T12:04:23.574Z,18.12
2022-10-23T12:07:00.818Z,18.15
2022-10-23T12:09:42.068Z,18.13
2022-10-23T12:12:29.700Z,18.10
2022-10-23T12:15:26.496Z,18.10
2022-10-23T12:18:16.502Z,18.20
2022-10-23T12:20:53.206Z,18.36
2022-10-23T12:23:48.047Z,18.53
2022-10-23T12:26:50.930Z,18.56
2022-10-23T12:29:37.662Z,18.57
2022-10-23T12:32:30.199Z,18.58
2022-10-23T12:35:20.512Z,18.58
2022-10-23T12:38:14.829Z,18.51
2022-10-23T12:40:53.251Z,18.45
2022-10-23T12:43:31.767Z,18.36
2022-10-23T12:46:20.485Z,18.28
2022-10-23T12:48:57.016Z,18.27
2022-10-23T12:51:32.590Z,18.27
2022-10-23T12:54:16.182Z,18.26
2022-10-23T12:56:50.270Z,18.25
2022-10-23T12:59:27.129Z,18.30
2022-10-23T13:02:02.326Z,18.32
2022-10-23T13:04:38.932Z,18.30
2022-10-23T13:07:13.692Z,18.23
2022-10-23T13:09:49.366Z,18.22
2022-10-23T13:12:29.808Z,18.22
2022-10-23T13:15:16.294Z,18.21
2022-10-23T13:18:01.923Z,18.20
2022-10-23T13:20:38.190Z,18.18
2022-10-23T13:23:21.058Z,18.12
2022-10-23T13:25:59.629Z,18.03
2022-10-23T13:28:36.974Z,17.99
2022-10-23T13:34:21.288Z,18.00
2022-10-23T13:36:59.686Z,17.98
2022-10-23T13:39:33.354Z,17.95
2022-10-23T13:42:15.487Z,17.86
2022-10-23T13:44:49.637Z,17.76
2022-10-23T13:47:23.472Z,17.69
2022-10-23T13:49:57.468Z,17.64
2022-10-23T13:52:31.332Z,17.62
2022-10-23T13:55:06.217Z,17.64
2022-10-23T13:57:39.786Z,17.65
2022-10-23T14:00:17.174Z,17.63
2022-10-23T14:02:50.536Z,17.61
2022-10-23T14:05:25.277Z,17.64
2022-10-23T14:07:58.567Z,17.65
2022-10-23T14:10:31.771Z,17.66
2022-10-23T14:13:05.138Z,17.66
2022-10-23T14:15:38.416Z,17.69
2022-10-23T14:18:11.757Z,17.71
2022-10-23T14:20:45.804Z,17.72
2022-10-23T14:23:18.917Z,17.72
2022-10-23T14:25:53.150Z,17.66
2022-10-23T14:28:26.649Z,17.60
2022-10-23T14:30:59.707Z,17.56
2022-10-23T14:33:32.901Z,17.47
2022-10-23T14:36:06.956Z,17.37
2022-10-23T14:38:40.707Z,17.33
2022-10-23T14:41:19.293Z,17.29
2022-10-23T14:43:53.228Z,17.27
2022-10-23T14:46:28.221Z,17.22
2022-10-23T14:49:02.587Z,17.17
2022-10-23T14:51:36.151Z,17.17
2022-10-23T14:54:11.890Z,17.15
2022-10-23T14:56:45.981Z,17.16
2022-10-23T14:59:20.103Z,17.11
2022-10-23T15:04:31.905Z,17.05
2022-10-23T15:07:06.314Z,16.97
2022-10-23T15:09:40.393Z,16.92
2022-10-23T15:12:13.895Z,16.88
2022-10-23T15:14:47.093Z,16.85
2022-10-23T15:17:20.325Z,16.87
2022-10-23T15:19:54.395Z,16.89
2022-10-23T15:22:27.438Z,16.89
2022-10-23T15:25:00.607Z,16.89
2022-10-23T15:27:35.311Z,16.88
2022-10-23T15:30:11.443Z,16.87
2022-10-23T15:32:44.808Z,16.88
2022-10-23T15:35:18.818Z,16.87
2022-10-23T15:37:55.785Z,16.88
2022-10-23T15:40:29.068Z,16.87
2022-10-23T15:43:02.478Z,16.85
2022-10-23T15:45:36.304Z,16.84
2022-10-23T15:48:11.590Z,16.82
2022-10-23T15:50:45.201Z,16.76
2022-10-23T15:53:19.342Z,16.74
2022-10-23T15:55:52.373Z,16.72
2022-10-23T15:58:25.410Z,16.69
2022-10-23T16:00:59.490Z,16.69
2022-10-23T16:03:32.490Z,16.70
2022-10-23T16:06:09.999Z,16.71
2022-10-23T16:08:44.265Z,16.71
2022-10-23T16:11:20.318Z,16.70
2022-10-23T16:13:54.111Z,16.71
2022-10-23T16:16:29.481Z,16.73
2022-10-23T16:19:06.359Z,16.73
2022-10-23T16:21:40.938Z,16.72
2022-10-23T16:24:15.376Z,16.72
2022-10-23T16:26:53.481Z,16.71
2022-10-23T16:29:29.698Z,16.70
2022-10-23T16:32:03.730Z,16.71
2022-10-23T16:34:37.406Z,16.73
2022-10-23T16:37:11.733Z,16.74
2022-10-23T16:40:20.428Z,16.70
2022-10-23T16:43:23.511Z,16.68
2022-10-23T16:46:10.071Z,16.67
2022-10-23T16:48:44.675Z,16.65
2022-10-23T16:51:20.291Z,16.64
2022-10-23T16:53:54.651Z,16.61
2022-10-23T16:56:31.352Z,16.60
2022-10-23T16:59:06.369Z,16.57
2022-10-23T17:01:44.167Z,16.55
2022-10-23T17:04:18.163Z,16.52
2022-10-23T17:06:52.602Z,16.48
2022-10-23T17:09:28.513Z,16.43
2022-10-23T17:12:02.395Z,16.38
2022-10-23T17:14:36.898Z,16.32
2022-10-23T17:17:14.469Z,16.28
2022-10-23T17:19:48.539Z,16.22
2022-10-23T17:22:23.049Z,16.19
2022-10-23T17:24:58.217Z,16.18
2022-10-23T17:27:32.648Z,16.19
2022-10-23T17:30:12.410Z,16.19
2022-10-23T17:32:48.939Z,16.16
2022-10-23T17:35:24.076Z,16.16
2022-10-23T17:37:59.540Z,16.16
2022-10-23T17:40:36.996Z,16.15
2022-10-23T17:43:16.893Z,16.17
2022-10-23T17:45:51.468Z,16.18
2022-10-23T17:48:25.629Z,16.20
2022-10-23T17:51:10.174Z,16.21
2022-10-23T17:53:48.950Z,16.21
2022-10-23T17:56:26.415Z,16.22
2022-10-23T17:59:04.777Z,16.22
2022-10-23T18:01:39.278Z,16.19
2022-10-23T18:04:14.535Z,16.16
2022-10-23T18:06:51.338Z,16.11
2022-10-23T18:09:25.591Z,16.06
2022-10-23T18:12:06.934Z,16.00
